Time;durP1;ratioP1;P1;durP2;ratioP2;P2;SDS_P1;SDS_P2;PMS_P1;PMS_P2;Temp;Humidity;BMP_temperature;BMP_pressure;BME280_temperature;BME280_humidity;BME280_pressure;Samples;Min_cycle;Max_cycle;Signal;HPM_P1;HPM_P2
2022/10/07 00:01:11;;;;;;;10.15;2.47;;;11.70;90.10;;;;;;5096328;28;20043;-76
2022/10/07 00:03:37;;;;;;;13.25;2.80;;;11.70;90.20;;;;;;5113359;28;20083;-76
2022/10/07 00:06:15;;;;;;;11.80;2.85;;;11.70;90.60;;;;;;5113050;28;20096;-76
2022/10/07 00:08:43;;;;;;;9.60;2.30;;;11.60;91.20;;;;;;5113018;28;20047;-77
2022/10/07 00:11:12;;;;;;;16.30;3.25;;;11.60;91.10;;;;;;5113096;28;20123;-76
2022/10/07 00:13:39;;;;;;;10.23;2.45;;;11.70;90.90;;;;;;5113152;28;20150;-77
2022/10/07 00:16:11;;;;;;;14.40;3.47;;;11.70;90.70;;;;;;5113093;28;20036;-76
2022/10/07 00:18:38;;;;;;;13.75;2.90;;;11.70;90.40;;;;;;5095807;28;20035;-75
2022/10/07 00:21:06;;;;;;;14.40;3.00;;;11.70;90.90;;;;;;5112811;28;20085;-76
2022/10/07 00:23:32;;;;;;;13.77;2.83;;;11.60;90.70;;;;;;5112745;28;20089;-77
2022/10/07 00:26:03;;;;;;;7.78;2.78;;;11.60;90.80;;;;;;5112729;28;20055;-76
2022/10/07 00:28:29;;;;;;;12.93;3.90;;;11.60;90.70;;;;;;5112540;28;20480;-76
2022/10/07 00:31:07;;;;;;;7.07;2.65;;;11.70;90.70;;;;;;5112808;28;20044;-75
2022/10/07 00:33:36;;;;;;;16.73;3.55;;;11.60;90.50;;;;;;5112654;28;20078;-76
2022/10/07 00:36:07;;;;;;;15.15;3.33;;;11.60;90.70;;;;;;5112786;28;20058;-77
2022/10/07 00:38:32;;;;;;;13.63;3.55;;;11.60;91.00;;;;;;5112464;28;20122;-76
2022/10/07 00:40:58;;;;;;;16.17;3.15;;;11.60;90.60;;;;;;5095513;28;20144;-76
2022/10/07 00:43:31;;;;;;;10.43;3.60;;;11.60;91.00;;;;;;5112284;28;20411;-77
2022/10/07 00:46:04;;;;;;;15.63;3.08;;;11.60;90.80;;;;;;5112619;28;20454;-76
2022/10/07 00:48:32;;;;;;;13.13;3.43;;;11.60;91.30;;;;;;5112726;28;20047;-77
2022/10/07 00:51:00;;;;;;;15.63;4.25;;;11.60;90.90;;;;;;5112432;28;20428;-77
2022/10/07 00:53:30;;;;;;;13.15;2.72;;;11.60;91.00;;;;;;5095264;28;20036;-76
2022/10/07 00:56:00;;;;;;;17.52;4.43;;;11.60;91.00;;;;;;5095532;28;20491;-77
2022/10/07 00:58:29;;;;;;;8.77;2.35;;;11.60;91.40;;;;;;5112297;28;20043;-76
2022/10/07 01:00:55;;;;;;;10.82;2.75;;;11.60;91.00;;;;;;5112223;28;20046;-76
2022/10/07 01:03:21;;;;;;;12.02;2.30;;;11.60;91.20;;;;;;5095269;28;20035;-76
2022/10/07 01:05:46;;;;;;;11.35;2.22;;;11.60;91.30;;;;;;5112187;28;20046;-77
2022/10/07 01:08:15;;;;;;;11.15;2.90;;;11.60;91.40;;;;;;5111324;28;20071;-77
2022/10/07 01:11:12;;;;;;;13.65;3.83;;;11.60;91.30;;;;;;5112260;28;20381;-76
2022/10/07 01:14:19;;;;;;;19.15;3.45;;;11.60;91.50;;;;;;5112043;28;20043;-77
2022/10/07 01:17:08;;;;;;;11.88;2.50;;;11.60;91.20;;;;;;5068101;28;20395;-77
2022/10/07 01:20:10;;;;;;;15.18;3.10;;;11.60;90.50;;;;;;5057579;28;20430;-77
2022/10/07 01:22:52;;;;;;;14.68;3.10;;;11.60;90.40;;;;;;5091282;28;20039;-77
2022/10/07 01:25:40;;;;;;;11.27;3.05;;;11.60;91.30;;;;;;5112065;28;20054;-75
2022/10/07 01:28:15;;;;;;;19.65;3.53;;;11.60;90.90;;;;;;5111972;28;20528;-77
2022/10/07 01:30:47;;;;;;;12.63;4.07;;;11.60;91.00;;;;;;5111824;28;20044;-77
2022/10/07 01:33:20;;;;;;;10.70;2.85;;;11.60;91.10;;;;;;5111916;28;20600;-77
2022/10/07 01:35:49;;;;;;;18.15;3.83;;;11.60;91.10;;;;;;5094898;28;20039;-77
2022/10/07 01:38:18;;;;;;;17.65;4.40;;;11.60;90.80;;;;;;5112185;28;20043;-77
2022/10/07 01:40:53;;;;;;;11.70;2.90;;;11.50;90.60;;;;;;5111760;28;20546;-77
2022/10/07 01:43:21;;;;;;;13.93;3.17;;;11.50;90.50;;;;;;5111556;28;20172;-77
2022/10/07 01:45:47;;;;;;;16.17;3.33;;;11.50;90.40;;;;;;5095068;28;20108;-77
2022/10/07 01:48:14;;;;;;;9.60;2.60;;;11.50;90.50;;;;;;5112060;28;20062;-77
2022/10/07 01:50:40;;;;;;;18.73;3.83;;;11.50;90.30;;;;;;5111592;28;20043;-75
2022/10/07 01:53:14;;;;;;;13.75;2.97;;;11.50;90.50;;;;;;5111746;28;20032;-76
2022/10/07 01:55:44;;;;;;;10.00;3.00;;;11.40;90.70;;;;;;5112024;28;20120;-76
2022/10/07 01:58:40;;;;;;;17.48;4.38;;;11.40;90.70;;;;;;5111603;28;20039;-77
2022/10/07 02:01:26;;;;;;;14.20;3.85;;;11.40;90.90;;;;;;5111912;28;20203;-77
2022/10/07 02:04:25;;;;;;;11.27;3.13;;;11.40;91.10;;;;;;5111710;28;20054;-77
2022/10/07 02:07:10;;;;;;;11.13;2.80;;;11.40;90.70;;;;;;5111622;28;20118;-76
2022/10/07 02:09:52;;;;;;;19.85;4.00;;;11.40;90.40;;;;;;5094531;28;20487;-76
2022/10/07 02:12:36;;;;;;;17.17;3.53;;;11.40;91.10;;;;;;5111508;28;20036;-76
2022/10/07 02:15:11;;;;;;;19.77;4.90;;;11.30;91.30;;;;;;5111542;28;20146;-77
2022/10/07 02:17:44;;;;;;;11.65;3.88;;;11.30;91.40;;;;;;5111556;28;20043;-78
2022/10/07 02:20:12;;;;;;;13.45;3.67;;;11.30;91.40;;;;;;5112915;28;20111;-76
2022/10/07 02:22:40;;;;;;;16.42;4.20;;;11.30;91.60;;;;;;5115084;28;20084;-76
2022/10/07 02:25:08;;;;;;;13.02;3.47;;;11.30;91.30;;;;;;5098025;28;20046;-77
2022/10/07 02:27:36;;;;;;;11.80;3.72;;;11.40;91.30;;;;;;5081583;28;20051;-77
2022/10/07 02:30:09;;;;;;;16.55;4.53;;;11.40;92.10;;;;;;5115140;28;20126;-77
2022/10/07 02:32:38;;;;;;;13.55;3.58;;;11.30;91.90;;;;;;5114852;28;20039;-75
2022/10/07 02:35:14;;;;;;;14.27;4.80;;;11.30;91.60;;;;;;5116146;28;20075;-76
2022/10/07 02:37:42;;;;;;;20.38;4.10;;;11.30;91.80;;;;;;5114776;28;20123;-77
2022/10/07 02:40:08;;;;;;;16.83;4.13;;;11.20;91.90;;;;;;5114928;28;20046;-77
2022/10/07 02:42:59;;;;;;;15.55;4.30;;;11.20;91.80;;;;;;5097594;28;20040;-77
2022/10/07 02:45:37;;;;;;;13.18;4.03;;;11.20;91.90;;;;;;5114663;28;20049;-76
2022/10/07 02:48:08;;;;;;;15.40;3.60;;;11.20;92.00;;;;;;5114916;28;20043;-77
2022/10/07 02:50:38;;;;;;;13.88;3.97;;;11.10;92.00;;;;;;5114684;28;20104;-77
2022/10/07 02:53:06;;;;;;;17.48;3.78;;;11.00;92.00;;;;;;5114579;28;20036;-77
2022/10/07 02:55:33;;;;;;;18.38;4.25;;;11.00;92.20;;;;;;5114740;28;20364;-76
2022/10/07 02:58:03;;;;;;;16.50;4.15;;;10.90;92.30;;;;;;5114426;28;20544;-77
2022/10/07 03:00:32;;;;;;;15.80;4.82;;;10.90;92.40;;;;;;5114609;28;20373;-77
2022/10/07 03:03:03;;;;;;;21.92;4.20;;;10.90;92.50;;;;;;5114748;28;20046;-77
2022/10/07 03:05:29;;;;;;;21.30;4.80;;;10.90;92.40;;;;;;5098367;28;20133;-77
2022/10/07 03:08:17;;;;;;;17.50;4.30;;;10.90;92.50;;;;;;5114201;28;20036;-76
2022/10/07 03:10:43;;;;;;;14.73;4.18;;;10.80;92.40;;;;;;5113570;28;20051;-77
2022/10/07 03:13:09;;;;;;;16.55;4.55;;;10.80;92.10;;;;;;5114112;28;20036;-76
2022/10/07 03:15:36;;;;;;;15.00;4.20;;;10.80;92.50;;;;;;5097099;28;20045;-77
2022/10/07 03:18:05;;;;;;;18.77;4.28;;;10.80;92.50;;;;;;5080420;28;20479;-77
2022/10/07 03:20:31;;;;;;;23.48;5.80;;;10.70;92.50;;;;;;5114186;28;20130;-78
2022/10/07 03:22:58;;;;;;;14.15;4.18;;;10.70;92.40;;;;;;5114242;28;20373;-77
2022/10/07 03:25:25;;;;;;;17.40;4.93;;;10.60;92.20;;;;;;5097157;28;20122;-77
2022/10/07 03:27:53;;;;;;;16.02;4.70;;;10.60;92.50;;;;;;5113787;28;20074;-77
2022/10/07 03:30:21;;;;;;;16.40;4.25;;;10.60;92.30;;;;;;5096976;28;20093;-76
2022/10/07 03:32:48;;;;;;;18.02;4.22;;;10.60;92.70;;;;;;5096374;28;20040;-77
2022/10/07 03:35:14;;;;;;;15.88;3.92;;;10.60;92.70;;;;;;5114120;28;20067;-77
2022/10/07 03:37:40;;;;;;;12.55;4.43;;;10.60;92.70;;;;;;5113686;28;20081;-77
2022/10/07 03:40:06;;;;;;;20.33;4.07;;;10.60;92.60;;;;;;5113569;28;20067;-77
2022/10/07 03:42:32;;;;;;;18.02;5.03;;;10.50;92.80;;;;;;5113272;28;20605;-76
2022/10/07 03:44:58;;;;;;;15.13;5.35;;;10.60;92.90;;;;;;5113482;28;20126;-76
2022/10/07 03:47:26;;;;;;;20.33;5.65;;;10.60;93.30;;;;;;5113476;28;20054;-78
2022/10/07 03:49:53;;;;;;;21.23;5.22;;;10.60;93.40;;;;;;5096581;28;20047;-77
2022/10/07 03:52:18;;;;;;;18.38;4.63;;;10.60;93.60;;;;;;5096293;28;20491;-77
2022/10/07 03:54:44;;;;;;;24.52;6.63;;;10.60;93.40;;;;;;5113547;28;20036;-77
2022/10/07 03:59:54;;;;;;;23.10;5.43;;;10.60;93.80;;;;;;5098803;28;20124;-77
2022/10/07 04:02:22;;;;;;;22.92;5.20;;;10.60;93.90;;;;;;5096223;28;20074;-77
2022/10/07 04:04:51;;;;;;;20.65;6.05;;;10.60;93.60;;;;;;5113334;28;20047;-76
2022/10/07 04:07:18;;;;;;;20.63;5.43;;;10.60;93.90;;;;;;5113003;28;20123;-75
2022/10/07 04:09:44;;;;;;;21.10;4.63;;;10.60;93.60;;;;;;5096001;28;20649;-77
2022/10/07 04:12:09;;;;;;;21.40;5.47;;;10.60;93.70;;;;;;5112984;28;20127;-78
2022/10/07 04:14:35;;;;;;;26.77;6.13;;;10.60;93.50;;;;;;5112890;28;20441;-77
2022/10/07 04:17:01;;;;;;;13.75;4.95;;;10.60;93.90;;;;;;5062495;28;20092;-77
2022/10/07 04:19:27;;;;;;;22.42;5.93;;;10.60;93.90;;;;;;5113006;28;20039;-77
2022/10/07 04:21:52;;;;;;;16.80;4.45;;;10.50;93.60;;;;;;5112983;28;20050;-77
2022/10/07 04:24:18;;;;;;;18.65;5.18;;;10.50;93.50;;;;;;5112718;28;20049;-76
2022/10/07 04:26:44;;;;;;;20.83;5.60;;;10.50;93.50;;;;;;5112714;28;20039;-77
2022/10/07 04:29:09;;;;;;;16.33;5.20;;;10.40;93.40;;;;;;5095625;28;20042;-78
2022/10/07 04:31:36;;;;;;;24.80;5.97;;;10.40;93.30;;;;;;5112466;28;20044;-76
2022/10/07 04:34:01;;;;;;;26.42;6.38;;;10.40;93.40;;;;;;5096023;28;20039;-75
2022/10/07 04:36:27;;;;;;;23.27;5.97;;;10.30;93.90;;;;;;5095623;28;20050;-78
2022/10/07 04:38:53;;;;;;;14.30;5.22;;;10.40;93.60;;;;;;5112973;28;20058;-77
2022/10/07 04:41:18;;;;;;;19.13;6.85;;;10.30;93.70;;;;;;5112480;28;20484;-77
2022/10/07 04:43:48;;;;;;;17.55;5.03;;;10.30;93.70;;;;;;5111253;28;20066;-76
2022/10/07 04:46:14;;;;;;;18.10;5.38;;;10.30;93.80;;;;;;5112363;28;20077;-77
2022/10/07 04:48:43;;;;;;;19.88;6.22;;;10.30;93.80;;;;;;5095412;28;20184;-76
2022/10/07 04:51:09;;;;;;;17.38;5.07;;;10.30;93.70;;;;;;5112189;28;20059;-78
2022/10/07 04:53:36;;;;;;;22.50;5.88;;;10.30;93.60;;;;;;5112263;28;20475;-77
2022/10/07 04:56:03;;;;;;;13.20;4.70;;;10.30;93.90;;;;;;5112338;28;20067;-77
2022/10/07 04:58:30;;;;;;;19.77;5.70;;;10.30;93.70;;;;;;5095392;28;20547;-77
2022/10/07 05:00:58;;;;;;;18.17;5.72;;;10.30;93.80;;;;;;5112262;28;20491;-76
2022/10/07 05:03:27;;;;;;;18.15;4.97;;;10.20;93.80;;;;;;5112176;28;20036;-76
2022/10/07 05:05:55;;;;;;;15.60;5.07;;;10.20;93.80;;;;;;5112403;28;20438;-77
2022/10/07 05:08:23;;;;;;;17.23;5.53;;;10.10;93.90;;;;;;5112286;28;20043;-78
2022/10/07 05:11:02;;;;;;;21.65;5.32;;;10.10;93.70;;;;;;5078422;28;20391;-77
2022/10/07 05:13:28;;;;;;;25.70;6.25;;;10.20;93.30;;;;;;5095196;28;20087;-78
2022/10/07 05:15:59;;;;;;;20.08;7.38;;;10.20;93.60;;;;;;5112052;28;20036;-77
2022/10/07 05:18:26;;;;;;;21.90;6.18;;;10.20;93.70;;;;;;5111976;28;20036;-77
2022/10/07 05:20:52;;;;;;;19.60;6.82;;;10.10;93.70;;;;;;5112350;28;20043;-76
2022/10/07 05:23:23;;;;;;;14.73;5.75;;;10.20;93.60;;;;;;5112251;28;20039;-77
2022/10/07 05:26:00;;;;;;;21.90;6.00;;;10.20;93.70;;;;;;5112429;28;20059;-77
2022/10/07 05:28:26;;;;;;;23.00;5.97;;;10.20;94.10;;;;;;5112053;28;20555;-78
2022/10/07 05:31:06;;;;;;;19.75;5.97;;;10.20;94.60;;;;;;5094916;28;20088;-77
2022/10/07 05:33:32;;;;;;;24.48;7.07;;;10.20;94.50;;;;;;5112218;28;20039;-77
2022/10/07 05:35:58;;;;;;;19.55;7.95;;;10.30;94.90;;;;;;5112179;28;20035;-77
2022/10/07 05:38:25;;;;;;;20.52;6.57;;;10.30;95.00;;;;;;5111804;28;20396;-77
2022/10/07 05:41:02;;;;;;;18.55;6.60;;;10.30;95.10;;;;;;5094188;28;20040;-76
2022/10/07 05:43:30;;;;;;;17.88;7.13;;;10.30;95.30;;;;;;5111613;28;20066;-76
2022/10/07 05:46:00;;;;;;;19.92;7.32;;;10.30;95.20;;;;;;5095094;28;20095;-76
2022/10/07 05:48:28;;;;;;;20.73;6.80;;;10.30;95.30;;;;;;5111815;28;20061;-78
2022/10/07 05:50:56;;;;;;;18.52;6.38;;;10.20;95.10;;;;;;5094986;28;20387;-77
2022/10/07 05:53:24;;;;;;;29.35;7.25;;;10.30;95.20;;;;;;5094329;28;20059;-77
2022/10/07 05:55:50;;;;;;;20.50;5.60;;;10.30;95.10;;;;;;5114364;28;20043;-78
2022/10/07 05:58:17;;;;;;;25.63;6.90;;;10.30;95.10;;;;;;5116005;28;20032;-77
2022/10/07 06:00:56;;;;;;;22.77;5.82;;;10.30;95.10;;;;;;5115892;28;20061;-77
2022/10/07 06:03:24;;;;;;;17.30;7.15;;;10.40;95.10;;;;;;5115495;28;20047;-76
2022/10/07 06:05:51;;;;;;;19.65;4.93;;;10.40;95.30;;;;;;5099123;28;20062;-78
2022/10/07 06:08:19;;;;;;;24.90;6.40;;;10.50;95.30;;;;;;5098447;28;20506;-77
2022/10/07 06:13:31;;;;;;;17.98;6.10;;;10.50;95.40;;;;;;5115322;28;20506;-78
2022/10/07 06:16:05;;;;;;;23.33;6.72;;;10.60;95.20;;;;;;5115332;28;20039;-79
2022/10/07 06:18:31;;;;;;;18.90;6.82;;;10.60;95.30;;;;;;5098131;28;20551;-80
2022/10/07 06:20:59;;;;;;;25.83;8.55;;;10.60;95.20;;;;;;5098239;28;20040;-78
2022/10/07 06:23:25;;;;;;;18.65;6.95;;;10.60;94.90;;;;;;5098411;28;20108;-79
2022/10/07 06:26:02;;;;;;;14.68;7.03;;;10.60;94.90;;;;;;5098347;28;20419;-79
2022/10/07 06:28:33;;;;;;;26.33;6.25;;;10.70;94.80;;;;;;5115173;28;20396;-78
2022/10/07 06:31:04;;;;;;;21.95;6.53;;;10.80;94.80;;;;;;5097995;28;20513;-80
2022/10/07 06:33:30;;;;;;;27.35;8.98;;;10.80;94.90;;;;;;5098258;28;20032;-79
2022/10/07 06:35:55;;;;;;;27.20;7.15;;;10.80;94.90;;;;;;5097976;28;20484;-80
2022/10/07 06:38:22;;;;;;;25.58;7.57;;;10.80;94.70;;;;;;5114856;28;20067;-80
2022/10/07 06:40:58;;;;;;;19.52;7.18;;;10.80;94.40;;;;;;5098148;28;20039;-79
2022/10/07 06:43:25;;;;;;;16.88;6.30;;;10.90;94.30;;;;;;5107217;27;20389;-77
2022/10/07 06:45:51;;;;;;;23.60;6.70;;;10.90;94.30;;;;;;5106609;28;20054;-78
2022/10/07 06:48:18;;;;;;;22.70;6.78;;;11.00;94.30;;;;;;5107518;27;20051;-78
2022/10/07 06:50:53;;;;;;;19.85;6.63;;;11.00;94.60;;;;;;5090050;28;20154;-78
2022/10/07 06:53:20;;;;;;;18.95;6.28;;;11.00;94.90;;;;;;5089700;28;20043;-78
2022/10/07 06:55:46;;;;;;;20.90;6.63;;;11.10;94.50;;;;;;5107818;28;20050;-78
2022/10/07 06:58:12;;;;;;;20.17;6.25;;;11.20;95.00;;;;;;5107806;28;20075;-78
2022/10/07 07:00:38;;;;;;;18.25;5.90;;;11.30;94.90;;;;;;5090486;28;20043;-77
2022/10/07 07:03:04;;;;;;;27.05;6.85;;;11.30;94.80;;;;;;5108321;27;20039;-77
2022/10/07 07:05:39;;;;;;;22.58;5.80;;;11.50;94.90;;;;;;5107655;28;20491;-80
2022/10/07 07:08:05;;;;;;;18.27;6.45;;;11.50;94.70;;;;;;5089365;28;20501;-77
2022/10/07 07:10:35;;;;;;;18.88;6.38;;;11.50;94.50;;;;;;5107275;28;20040;-78
2022/10/07 07:13:01;;;;;;;28.95;7.25;;;11.70;94.60;;;;;;5105591;27;20043;-77
2022/10/07 07:15:26;;;;;;;19.77;6.05;;;11.70;94.50;;;;;;5107420;28;20035;-76
2022/10/07 07:17:52;;;;;;;20.17;5.65;;;11.80;94.30;;;;;;5089260;28;20062;-80
2022/10/07 07:20:18;;;;;;;21.70;7.97;;;11.80;94.20;;;;;;5107617;28;20062;-77
2022/10/07 07:22:43;;;;;;;19.50;5.88;;;11.90;94.20;;;;;;5107184;27;20050;-77
2022/10/07 07:25:09;;;;;;;18.23;5.93;;;11.90;94.20;;;;;;5089846;28;20061;-78
2022/10/07 07:27:35;;;;;;;17.00;5.55;;;12.00;94.00;;;;;;5089916;28;20491;-76
2022/10/07 07:30:02;;;;;;;15.77;5.95;;;12.00;93.70;;;;;;5107425;28;20092;-78
2022/10/07 07:32:31;;;;;;;20.10;5.85;;;12.10;93.60;;;;;;5105354;27;20043;-78
2022/10/07 07:34:59;;;;;;;17.92;6.97;;;12.10;93.40;;;;;;5104939;28;20035;-77
2022/10/07 07:37:28;;;;;;;23.48;6.28;;;12.10;93.30;;;;;;5091505;28;20379;-79
2022/10/07 07:39:54;;;;;;;21.80;7.72;;;12.20;93.20;;;;;;5091347;28;20391;-77
2022/10/07 07:42:20;;;;;;;21.08;5.53;;;12.30;93.00;;;;;;5105423;28;20039;-78
2022/10/07 07:44:46;;;;;;;18.35;5.47;;;12.30;92.90;;;;;;5074201;28;20491;-77
2022/10/07 07:47:15;;;;;;;23.83;5.55;;;12.40;92.90;;;;;;5089084;28;20130;-75
2022/10/07 07:49:41;;;;;;;19.13;5.95;;;12.50;92.80;;;;;;5106880;28;20453;-77
2022/10/07 07:52:07;;;;;;;20.83;5.45;;;12.50;92.60;;;;;;5105366;27;20051;-78
2022/10/07 07:54:36;;;;;;;17.95;5.93;;;12.60;92.50;;;;;;5107481;27;20047;-75
2022/10/07 07:57:02;;;;;;;20.40;5.65;;;12.60;92.40;;;;;;5106808;28;20123;-78
2022/10/07 07:59:30;;;;;;;14.82;5.28;;;12.70;92.20;;;;;;5105116;28;20118;-76
2022/10/07 08:01:56;;;;;;;19.00;5.20;;;12.80;92.00;;;;;;5105883;28;20046;-77
2022/10/07 08:04:22;;;;;;;21.40;6.40;;;12.90;91.70;;;;;;5090377;28;20500;-77
2022/10/07 08:06:48;;;;;;;17.80;4.38;;;13.00;91.60;;;;;;5107096;28;20048;-76
2022/10/07 08:09:14;;;;;;;18.02;5.00;;;13.00;91.30;;;;;;5089385;28;20056;-78
2022/10/07 08:11:43;;;;;;;17.05;4.78;;;13.00;91.10;;;;;;5104836;28;20286;-77
2022/10/07 08:14:14;;;;;;;21.80;5.63;;;13.10;90.90;;;;;;5084127;28;20104;-77
2022/10/07 08:16:42;;;;;;;20.77;5.30;;;13.20;90.60;;;;;;5088411;28;20148;-77
2022/10/07 08:19:10;;;;;;;19.30;4.65;;;13.30;90.60;;;;;;5100920;28;20096;-75
2022/10/07 08:21:36;;;;;;;17.55;5.10;;;13.30;90.40;;;;;;5087723;28;20051;-79
2022/10/07 08:24:04;;;;;;;19.92;4.63;;;13.40;90.10;;;;;;5106890;27;20058;-75
2022/10/07 08:26:31;;;;;;;18.00;5.32;;;13.40;90.00;;;;;;5105330;28;20052;-77
2022/10/07 08:28:58;;;;;;;17.10;5.05;;;13.50;90.00;;;;;;5106933;28;20159;-76
2022/10/07 08:31:26;;;;;;;13.90;4.95;;;13.50;89.80;;;;;;5111980;28;20043;-77
2022/10/07 08:33:53;;;;;;;16.17;4.60;;;13.50;89.80;;;;;;5095049;28;20086;-77
2022/10/07 08:36:21;;;;;;;20.17;5.28;;;13.60;89.60;;;;;;5096048;28;20039;-77
2022/10/07 08:38:47;;;;;;;16.80;4.82;;;13.60;89.40;;;;;;5095564;28;20122;-79
2022/10/07 08:41:44;;;;;;;13.40;4.15;;;13.70;89.10;;;;;;5095718;28;20118;-78
2022/10/07 08:44:16;;;;;;;15.27;4.88;;;13.70;89.00;;;;;;5095290;28;20055;-75
2022/10/07 08:47:01;;;;;;;15.18;6.22;;;13.80;88.90;;;;;;5095467;28;20054;-78
2022/10/07 08:49:48;;;;;;;14.30;4.63;;;13.90;89.00;;;;;;5112739;28;20043;-79
2022/10/07 08:52:36;;;;;;;15.15;4.80;;;14.00;88.80;;;;;;5095664;28;20444;-79
2022/10/07 08:55:24;;;;;;;18.23;4.90;;;14.00;88.40;;;;;;5112619;28;20399;-77
2022/10/07 08:58:29;;;;;;;13.70;4.00;;;14.10;88.30;;;;;;5112896;28;20092;-78
2022/10/07 09:01:01;;;;;;;16.50;5.00;;;14.20;87.70;;;;;;5098152;28;20039;-78
2022/10/07 09:03:40;;;;;;;17.83;4.53;;;14.20;87.70;;;;;;5121753;28;20122;-79
2022/10/07 09:06:12;;;;;;;13.75;4.18;;;14.20;87.60;;;;;;5115692;28;20039;-79
2022/10/07 09:08:43;;;;;;;12.75;3.83;;;14.40;87.40;;;;;;5095380;28;20365;-79
2022/10/07 09:11:17;;;;;;;16.50;4.68;;;14.50;87.50;;;;;;5112355;28;20036;-78
2022/10/07 09:14:19;;;;;;;14.90;4.45;;;14.50;87.00;;;;;;5112402;28;20040;-78
2022/10/07 09:16:46;;;;;;;13.50;3.72;;;14.60;87.00;;;;;;5108876;28;20567;-77
2022/10/07 09:19:40;;;;;;;17.55;3.58;;;14.60;86.70;;;;;;5095072;28;20079;-79
2022/10/07 09:22:18;;;;;;;13.43;4.47;;;14.70;86.50;;;;;;5104509;28;20055;-81
2022/10/07 09:24:45;;;;;;;17.80;3.97;;;14.60;86.30;;;;;;5095622;28;20388;-82
2022/10/07 09:27:14;;;;;;;14.20;4.13;;;14.60;86.00;;;;;;5078548;28;20517;-80
2022/10/07 09:29:41;;;;;;;11.55;3.63;;;14.70;85.60;;;;;;5113009;28;20036;-77
2022/10/07 09:32:12;;;;;;;10.80;3.88;;;14.80;86.00;;;;;;5116030;28;20043;-80
2022/10/07 09:34:38;;;;;;;13.02;3.72;;;14.90;85.70;;;;;;5099057;28;20040;-80
2022/10/07 09:37:20;;;;;;;22.40;4.35;;;14.90;85.30;;;;;;5116080;28;20036;-78
2022/10/07 09:39:49;;;;;;;17.13;4.60;;;15.00;85.30;;;;;;5116195;28;20357;-79
2022/10/07 09:42:33;;;;;;;17.42;4.75;;;15.10;85.20;;;;;;5116208;28;20052;-78
2022/10/07 09:45:31;;;;;;;15.90;4.15;;;15.10;84.70;;;;;;5115921;28;20112;-80
2022/10/07 09:48:10;;;;;;;19.83;4.88;;;15.10;83.90;;;;;;5115948;28;20051;-78
2022/10/07 09:50:41;;;;;;;18.42;4.35;;;15.20;84.60;;;;;;5116060;28;20088;-81
2022/10/07 09:53:31;;;;;;;16.10;4.95;;;15.30;83.80;;;;;;5115821;28;20040;-79
2022/10/07 09:55:57;;;;;;;14.43;4.85;;;15.50;84.30;;;;;;5115807;28;20445;-80
2022/10/07 09:58:30;;;;;;;15.32;3.63;;;15.50;83.10;;;;;;5115860;28;20039;-79
2022/10/07 10:00:58;;;;;;;22.13;5.03;;;15.60;83.30;;;;;;5115550;28;20104;-79
2022/10/07 10:03:36;;;;;;;17.10;4.70;;;15.50;82.60;;;;;;5115583;28;20079;-79
2022/10/07 10:06:05;;;;;;;14.40;4.05;;;15.60;83.00;;;;;;5115724;28;20055;-80
2022/10/07 10:08:34;;;;;;;17.73;4.60;;;15.70;83.00;;;;;;5115389;28;20052;-80
2022/10/07 10:11:02;;;;;;;14.13;4.40;;;15.80;82.80;;;;;;5115363;28;20165;-80
2022/10/07 10:13:31;;;;;;;16.35;4.25;;;16.00;82.80;;;;;;5098421;28;20142;-79
2022/10/07 10:15:58;;;;;;;15.45;5.18;;;16.00;82.50;;;;;;5115316;28;20039;-80
2022/10/07 10:18:37;;;;;;;16.02;4.18;;;16.00;82.20;;;;;;5115177;28;20039;-79
2022/10/07 10:21:27;;;;;;;17.08;4.05;;;16.10;82.40;;;;;;5115322;28;20043;-81
2022/10/07 10:23:56;;;;;;;14.48;4.13;;;16.20;82.20;;;;;;5115253;28;20503;-79
2022/10/07 10:26:46;;;;;;;13.50;4.03;;;16.30;81.50;;;;;;5115415;28;20061;-80
2022/10/07 10:29:54;;;;;;;17.90;4.90;;;16.40;81.00;;;;;;5115061;28;20480;-79
2022/10/07 10:32:24;;;;;;;14.05;4.03;;;16.40;80.80;;;;;;5097990;28;20054;-80
2022/10/07 10:35:05;;;;;;;14.90;4.00;;;16.40;80.60;;;;;;5098028;28;20042;-79
2022/10/07 10:37:39;;;;;;;17.73;4.28;;;16.50;80.30;;;;;;5115063;28;20396;-79
2022/10/07 10:40:18;;;;;;;14.52;4.20;;;16.60;80.70;;;;;;5098172;28;20430;-82
2022/10/07 10:43:01;;;;;;;13.52;3.95;;;16.70;80.00;;;;;;5114870;28;20066;-80
2022/10/07 10:45:36;;;;;;;12.40;3.63;;;16.50;79.10;;;;;;5114821;28;20055;-81
2022/10/07 10:48:30;;;;;;;14.80;4.18;;;16.70;79.80;;;;;;5114692;28;20035;-80
2022/10/07 10:51:14;;;;;;;15.10;4.22;;;16.70;79.60;;;;;;5114929;28;20058;-80
2022/10/07 10:53:50;;;;;;;15.55;5.07;;;16.90;79.50;;;;;;5114922;28;20032;-77
2022/10/07 10:56:27;;;;;;;16.20;3.95;;;17.00;78.90;;;;;;5097746;28;20088;-80
2022/10/07 10:59:44;;;;;;;14.75;4.20;;;17.10;78.70;;;;;;5097420;28;20039;-81
2022/10/07 11:02:31;;;;;;;15.32;3.83;;;17.00;78.50;;;;;;5036209;28;20513;-80
2022/10/07 11:05:02;;;;;;;13.98;3.90;;;17.30;78.50;;;;;;5115016;28;20515;-79
2022/10/07 11:07:56;;;;;;;19.17;4.15;;;17.30;78.40;;;;;;5114344;28;20044;-78
2022/10/07 11:10:39;;;;;;;17.27;3.85;;;17.50;77.90;;;;;;5114287;28;20047;-80
2022/10/07 11:13:32;;;;;;;18.20;4.28;;;17.50;76.60;;;;;;5114285;28;20068;-80
2022/10/07 11:16:24;;;;;;;16.33;4.30;;;17.40;77.30;;;;;;5114231;28;20043;-78
2022/10/07 11:19:00;;;;;;;14.25;3.72;;;17.30;77.60;;;;;;5114171;28;20123;-79
2022/10/07 11:21:37;;;;;;;11.07;3.38;;;17.40;77.30;;;;;;5114482;28;20035;-80
2022/10/07 11:24:14;;;;;;;12.07;3.85;;;17.50;77.10;;;;;;5114061;28;20045;-79
2022/10/07 11:26:44;;;;;;;10.88;3.33;;;17.50;76.50;;;;;;5114038;28;20044;-79
2022/10/07 11:29:23;;;;;;;10.13;3.42;;;17.50;76.70;;;;;;5113826;28;20480;-79
2022/10/07 11:32:06;;;;;;;13.88;3.55;;;17.50;76.60;;;;;;5113910;28;20118;-79
2022/10/07 11:34:54;;;;;;;13.95;3.38;;;17.50;77.00;;;;;;5114072;28;20089;-79
2022/10/07 11:37:36;;;;;;;11.50;3.72;;;17.60;76.30;;;;;;5113738;28;20043;-79
2022/10/07 11:40:06;;;;;;;17.75;4.60;;;17.70;76.20;;;;;;5113846;28;20040;-80
2022/10/07 11:42:39;;;;;;;13.73;3.97;;;17.80;75.80;;;;;;5096831;28;20104;-80
2022/10/07 11:45:06;;;;;;;12.60;4.00;;;17.50;75.50;;;;;;5113654;28;20044;-81
2022/10/07 11:47:47;;;;;;;15.10;3.83;;;17.20;77.10;;;;;;5113569;28;20044;-81
2022/10/07 11:50:34;;;;;;;14.25;4.43;;;17.00;77.30;;;;;;5113417;28;20514;-80
2022/10/07 11:53:06;;;;;;;16.65;4.50;;;16.90;78.00;;;;;;5112845;28;20047;-80
2022/10/07 11:55:38;;;;;;;11.50;3.55;;;16.90;78.60;;;;;;5113705;28;20043;-79
2022/10/07 11:58:05;;;;;;;14.27;4.35;;;16.80;78.50;;;;;;5113735;28;20058;-81
2022/10/07 12:00:33;;;;;;;15.88;4.10;;;16.80;78.80;;;;;;5113154;28;20051;-79
2022/10/07 12:03:17;;;;;;;18.13;4.78;;;16.80;78.70;;;;;;5113351;28;20044;-80
2022/10/07 12:05:49;;;;;;;10.77;3.67;;;16.70;79.00;;;;;;5113236;28;20039;-80
2022/10/07 12:08:52;;;;;;;16.10;4.07;;;16.90;79.00;;;;;;5113636;28;20054;-80
2022/10/07 12:11:17;;;;;;;13.90;3.50;;;16.70;79.10;;;;;;5096463;28;20108;-79
2022/10/07 12:13:49;;;;;;;16.40;4.15;;;16.60;79.50;;;;;;5111995;28;20036;-81
2022/10/07 12:16:29;;;;;;;13.80;3.95;;;16.60;80.00;;;;;;5091033;28;20054;-79
2022/10/07 12:19:06;;;;;;;19.77;4.95;;;16.60;79.70;;;;;;5089814;28;20032;-80
2022/10/07 12:21:57;;;;;;;13.65;3.03;;;16.60;79.70;;;;;;5106225;28;20043;-81
2022/10/07 12:24:23;;;;;;;9.40;3.28;;;16.90;79.50;;;;;;5088520;28;20066;-80
2022/10/07 12:26:49;;;;;;;9.75;2.85;;;17.10;78.60;;;;;;5071065;28;20035;-81
2022/10/07 12:29:24;;;;;;;13.35;3.65;;;17.30;78.10;;;;;;5094057;28;20398;-79
2022/10/07 12:31:50;;;;;;;8.73;2.83;;;17.50;76.30;;;;;;5112632;28;20123;-79
2022/10/07 12:34:36;;;;;;;12.73;3.85;;;17.40;76.60;;;;;;5112989;28;20135;-79
2022/10/07 12:37:38;;;;;;;9.05;2.58;;;17.40;76.20;;;;;;5095691;28;20501;-79
2022/10/07 12:40:16;;;;;;;9.05;2.97;;;17.40;76.50;;;;;;5095511;28;20086;-80
2022/10/07 12:42:50;;;;;;;6.43;2.20;;;17.40;76.20;;;;;;5112382;28;20124;-80
2022/10/07 12:45:17;;;;;;;11.00;3.10;;;17.30;76.70;;;;;;5112826;28;20130;-80
2022/10/07 12:47:44;;;;;;;9.20;2.85;;;17.30;76.40;;;;;;5112517;28;20055;-81
2022/10/07 12:50:14;;;;;;;10.45;3.03;;;17.30;76.30;;;;;;5078775;28;20057;-79
2022/10/07 12:52:42;;;;;;;11.13;3.47;;;17.30;75.90;;;;;;5095229;28;20484;-82
2022/10/07 12:55:15;;;;;;;11.88;3.45;;;17.10;76.00;;;;;;5112278;28;20046;-82
2022/10/07 12:57:46;;;;;;;9.90;2.40;;;17.10;76.60;;;;;;5095624;28;20039;-81
2022/10/07 13:00:20;;;;;;;9.95;2.45;;;17.20;76.90;;;;;;5112134;28;20031;-81
2022/10/07 13:03:04;;;;;;;14.65;4.78;;;17.20;75.90;;;;;;5112521;28;20443;-81
2022/10/07 13:06:00;;;;;;;12.48;3.17;;;17.30;76.40;;;;;;5111618;28;20048;-81
2022/10/07 13:08:54;;;;;;;10.02;3.60;;;17.40;75.90;;;;;;5112184;28;20169;-80
2022/10/07 13:11:22;;;;;;;13.35;3.42;;;17.40;75.60;;;;;;5112130;28;20040;-79